sensor_id;sensor_type;location;lat;lon;timestamp;temperature;humidity
75799;DHT22;65035;44.726;37.764;2022-12-19T00:00:34;19.29;118.99
75799;DHT22;65035;44.726;37.764;2022-12-19T00:01:37;19.27;118.99
75799;DHT22;65035;44.726;37.764;2022-12-19T00:02:40;19.29;118.99
75799;DHT22;65035;44.726;37.764;2022-12-19T00:03:45;19.28;118.99
75799;DHT22;65035;44.726;37.764;2022-12-19T00:04:48;19.26;118.99
75799;DHT22;65035;44.726;37.764;2022-12-19T00:05:51;19.25;118.99
75799;DHT22;65035;44.726;37.764;2022-12-19T00:06:56;19.26;118.99
75799;DHT22;65035;44.726;37.764;2022-12-19T00:08:00;19.28;118.99
75799;DHT22;65035;44.726;37.764;2022-12-19T00:09:03;19.26;118.99
75799;DHT22;65035;44.726;37.764;2022-12-19T00:10:07;19.22;118.99
75799;DHT22;65035;44.726;37.764;2022-12-19T00:11:11;19.26;118.99
75799;DHT22;65035;44.726;37.764;2022-12-19T00:12:15;19.26;118.99
75799;DHT22;65035;44.726;37.764;2022-12-19T00:13:20;19.25;118.99
75799;DHT22;65035;44.726;37.764;2022-12-19T00:14:22;19.25;118.99
75799;DHT22;65035;44.726;37.764;2022-12-19T00:15:25;19.23;118.99
75799;DHT22;65035;44.726;37.764;2022-12-19T00:16:29;19.24;118.99
75799;DHT22;65035;44.726;37.764;2022-12-19T00:17:34;19.27;118.99
75799;DHT22;65035;44.726;37.764;2022-12-19T00:18:39;19.25;118.99
75799;DHT22;65035;44.726;37.764;2022-12-19T00:19:42;19.28;118.99
75799;DHT22;65035;44.726;37.764;2022-12-19T00:20:56;19.28;118.99
75799;DHT22;65035;44.726;37.764;2022-12-19T00:21:59;19.31;118.99
75799;DHT22;65035;44.726;37.764;2022-12-19T00:23:03;19.26;118.99
75799;DHT22;65035;44.726;37.764;2022-12-19T00:24:06;19.28;118.99
75799;DHT22;65035;44.726;37.764;2022-12-19T00:25:10;19.27;118.99
75799;DHT22;65035;44.726;37.764;2022-12-19T00:27:21;19.27;118.99
75799;DHT22;65035;44.726;37.764;2022-12-19T00:28:24;19.24;118.99
75799;DHT22;65035;44.726;37.764;2022-12-19T00:29:27;19.24;118.99
75799;DHT22;65035;44.726;37.764;2022-12-19T00:30:30;19.24;118.99
75799;DHT22;65035;44.726;37.764;2022-12-19T00:31:36;19.24;118.99
75799;DHT22;65035;44.726;37.764;2022-12-19T00:32:40;19.23;118.99
75799;DHT22;65035;44.726;37.764;2022-12-19T00:33:44;19.22;118.99
75799;DHT22;65035;44.726;37.764;2022-12-19T00:34:47;19.17;118.99
75799;DHT22;65035;44.726;37.764;2022-12-19T00:35:49;19.25;118.99
75799;DHT22;65035;44.726;37.764;2022-12-19T00:36:52;19.23;118.99
75799;DHT22;65035;44.726;37.764;2022-12-19T00:37:55;19.23;118.99
75799;DHT22;65035;44.726;37.764;2022-12-19T00:39:00;19.17;118.99
75799;DHT22;65035;44.726;37.764;2022-12-19T00:40:04;19.21;118.99
75799;DHT22;65035;44.726;37.764;2022-12-19T00:41:08;19.23;118.99
75799;DHT22;65035;44.726;37.764;2022-12-19T00:42:12;19.21;118.99
75799;DHT22;65035;44.726;37.764;2022-12-19T00:43:16;19.23;118.99
75799;DHT22;65035;44.726;37.764;2022-12-19T00:44:19;19.24;118.99
75799;DHT22;65035;44.726;37.764;2022-12-19T00:45:22;19.22;118.99
75799;DHT22;65035;44.726;37.764;2022-12-19T00:46:26;19.20;118.99
75799;DHT22;65035;44.726;37.764;2022-12-19T00:47:29;19.22;118.99
75799;DHT22;65035;44.726;37.764;2022-12-19T00:48:32;19.20;118.99
75799;DHT22;65035;44.726;37.764;2022-12-19T00:49:36;19.23;118.99
75799;DHT22;65035;44.726;37.764;2022-12-19T00:50:39;19.20;118.99
75799;DHT22;65035;44.726;37.764;2022-12-19T00:51:42;19.21;118.99
75799;DHT22;65035;44.726;37.764;2022-12-19T00:52:45;19.21;118.99
75799;DHT22;65035;44.726;37.764;2022-12-19T00:53:49;19.23;118.99
75799;DHT22;65035;44.726;37.764;2022-12-19T00:54:52;19.18;118.99
75799;DHT22;65035;44.726;37.764;2022-12-19T00:55:55;19.15;118.99
75799;DHT22;65035;44.726;37.764;2022-12-19T00:56:59;19.22;118.99
75799;DHT22;65035;44.726;37.764;2022-12-19T00:58:02;19.13;118.99
75799;DHT22;65035;44.726;37.764;2022-12-19T00:59:05;19.29;118.99
75799;DHT22;65035;44.726;37.764;2022-12-19T01:00:09;19.17;118.99
75799;DHT22;65035;44.726;37.764;2022-12-19T01:01:15;19.11;118.99
75799;DHT22;65035;44.726;37.764;2022-12-19T01:02:19;19.12;118.99
75799;DHT22;65035;44.726;37.764;2022-12-19T01:03:22;19.13;118.99
75799;DHT22;65035;44.726;37.764;2022-12-19T01:04:25;19.13;118.99
75799;DHT22;65035;44.726;37.764;2022-12-19T01:05:29;19.17;118.99
75799;DHT22;65035;44.726;37.764;2022-12-19T01:06:32;19.15;118.99
75799;DHT22;65035;44.726;37.764;2022-12-19T01:07:35;19.15;118.99
75799;DHT22;65035;44.726;37.764;2022-12-19T01:08:38;19.15;118.99
75799;DHT22;65035;44.726;37.764;2022-12-19T01:09:41;19.14;118.99
75799;DHT22;65035;44.726;37.764;2022-12-19T01:10:48;19.16;118.99
75799;DHT22;65035;44.726;37.764;2022-12-19T01:11:51;19.13;118.99
75799;DHT22;65035;44.726;37.764;2022-12-19T01:13:15;19.16;118.99
75799;DHT22;65035;44.726;37.764;2022-12-19T01:14:19;19.15;118.99
75799;DHT22;65035;44.726;37.764;2022-12-19T01:15:23;19.16;118.99
75799;DHT22;65035;44.726;37.764;2022-12-19T01:16:26;19.14;118.99
75799;DHT22;65035;44.726;37.764;2022-12-19T01:17:29;19.14;118.99
75799;DHT22;65035;44.726;37.764;2022-12-19T01:18:32;19.12;118.99
75799;DHT22;65035;44.726;37.764;2022-12-19T01:19:35;19.09;118.99
75799;DHT22;65035;44.726;37.764;2022-12-19T01:20:44;19.14;118.99
75799;DHT22;65035;44.726;37.764;2022-12-19T01:21:49;19.13;118.99
75799;DHT22;65035;44.726;37.764;2022-12-19T01:22:53;19.13;118.99
75799;DHT22;65035;44.726;37.764;2022-12-19T01:23:55;19.14;118.99
75799;DHT22;65035;44.726;37.764;2022-12-19T01:25:00;19.15;118.99
75799;DHT22;65035;44.726;37.764;2022-12-19T01:26:03;19.14;118.99
75799;DHT22;65035;44.726;37.764;2022-12-19T01:27:08;19.22;118.99
75799;DHT22;65035;44.726;37.764;2022-12-19T01:28:14;19.23;118.99
75799;DHT22;65035;44.726;37.764;2022-12-19T01:29:17;19.21;118.99
75799;DHT22;65035;44.726;37.764;2022-12-19T01:30:22;19.17;118.99
75799;DHT22;65035;44.726;37.764;2022-12-19T01:31:24;19.23;118.99
75799;DHT22;65035;44.726;37.764;2022-12-19T01:32:27;19.21;118.99
75799;DHT22;65035;44.726;37.764;2022-12-19T01:33:32;19.16;118.99
75799;DHT22;65035;44.726;37.764;2022-12-19T01:34:35;19.12;118.99
75799;DHT22;65035;44.726;37.764;2022-12-19T01:35:39;19.21;118.99
75799;DHT22;65035;44.726;37.764;2022-12-19T01:36:45;19.24;118.99
75799;DHT22;65035;44.726;37.764;2022-12-19T01:37:52;19.18;118.99
75799;DHT22;65035;44.726;37.764;2022-12-19T01:38:56;19.24;118.99
75799;DHT22;65035;44.726;37.764;2022-12-19T01:40:01;19.20;118.99
75799;DHT22;65035;44.726;37.764;2022-12-19T01:41:04;19.22;118.99
75799;DHT22;65035;44.726;37.764;2022-12-19T01:42:35;19.23;118.99
75799;DHT22;65035;44.726;37.764;2022-12-19T01:44:02;19.20;118.99
75799;DHT22;65035;44.726;37.764;2022-12-19T01:46:14;19.23;118.99
75799;DHT22;65035;44.726;37.764;2022-12-19T01:47:18;19.10;118.99
75799;DHT22;65035;44.726;37.764;2022-12-19T01:48:33;19.12;118.99
75799;DHT22;65035;44.726;37.764;2022-12-19T01:49:41;19.08;118.99
75799;DHT22;65035;44.726;37.764;2022-12-19T01:51:55;19.11;118.99
75799;DHT22;65035;44.726;37.764;2022-12-19T01:53:01;19.12;118.99
75799;DHT22;65035;44.726;37.764;2022-12-19T01:54:08;19.11;118.99
75799;DHT22;65035;44.726;37.764;2022-12-19T01:55:12;19.08;118.99
75799;DHT22;65035;44.726;37.764;2022-12-19T01:56:22;19.16;118.99
75799;DHT22;65035;44.726;37.764;2022-12-19T01:57:28;19.11;118.99
75799;DHT22;65035;44.726;37.764;2022-12-19T01:58:31;19.08;118.99
75799;DHT22;65035;44.726;37.764;2022-12-19T01:59:47;19.08;118.99
75799;DHT22;65035;44.726;37.764;2022-12-19T02:00:51;19.09;118.99
75799;DHT22;65035;44.726;37.764;2022-12-19T02:01:59;19.07;118.99
75799;DHT22;65035;44.726;37.764;2022-12-19T02:03:10;19.10;118.99
75799;DHT22;65035;44.726;37.764;2022-12-19T02:04:19;19.12;118.99
75799;DHT22;65035;44.726;37.764;2022-12-19T02:05:22;19.09;118.99
75799;DHT22;65035;44.726;37.764;2022-12-19T02:06:26;19.11;118.99
75799;DHT22;65035;44.726;37.764;2022-12-19T02:07:29;19.12;118.99
75799;DHT22;65035;44.726;37.764;2022-12-19T02:08:34;19.13;118.99
75799;DHT22;65035;44.726;37.764;2022-12-19T02:09:37;19.10;118.99
75799;DHT22;65035;44.726;37.764;2022-12-19T02:10:40;19.10;118.99
75799;DHT22;65035;44.726;37.764;2022-12-19T02:11:43;19.11;118.99
75799;DHT22;65035;44.726;37.764;2022-12-19T02:12:49;19.14;118.99
75799;DHT22;65035;44.726;37.764;2022-12-19T02:13:53;19.08;118.99
75799;DHT22;65035;44.726;37.764;2022-12-19T02:14:57;19.15;118.99
75799;DHT22;65035;44.726;37.764;2022-12-19T02:21:40;19.14;118.99
75799;DHT22;65035;44.726;37.764;2022-12-19T02:32:06;19.06;118.99
75799;DHT22;65035;44.726;37.764;2022-12-19T02:35:53;19.18;118.99
75799;DHT22;65035;44.726;37.764;2022-12-19T02:37:05;19.17;118.99
75799;DHT22;65035;44.726;37.764;2022-12-19T02:38:47;19.00;118.99
75799;DHT22;65035;44.726;37.764;2022-12-19T02:40:01;19.08;118.99
75799;DHT22;65035;44.726;37.764;2022-12-19T02:41:20;19.06;118.99
75799;DHT22;65035;44.726;37.764;2022-12-19T02:42:29;19.10;118.99
75799;DHT22;65035;44.726;37.764;2022-12-19T02:43:39;19.02;118.99
75799;DHT22;65035;44.726;37.764;2022-12-19T02:44:50;19.03;118.99
75799;DHT22;65035;44.726;37.764;2022-12-19T02:45:55;19.01;118.99
75799;DHT22;65035;44.726;37.764;2022-12-19T02:47:01;19.02;118.99
75799;DHT22;65035;44.726;37.764;2022-12-19T02:48:06;19.06;118.99
75799;DHT22;65035;44.726;37.764;2022-12-19T02:49:13;19.03;118.99
75799;DHT22;65035;44.726;37.764;2022-12-19T02:50:17;19.08;118.99
75799;DHT22;65035;44.726;37.764;2022-12-19T02:51:21;19.02;118.99
75799;DHT22;65035;44.726;37.764;2022-12-19T02:53:27;19.07;118.99
75799;DHT22;65035;44.726;37.764;2022-12-19T02:54:32;19.08;118.99
75799;DHT22;65035;44.726;37.764;2022-12-19T02:55:50;19.11;118.99
75799;DHT22;65035;44.726;37.764;2022-12-19T02:57:12;19.11;118.99
75799;DHT22;65035;44.726;37.764;2022-12-19T03:01:10;19.07;118.99
75799;DHT22;65035;44.726;37.764;2022-12-19T03:04:58;18.97;118.99
75799;DHT22;65035;44.726;37.764;2022-12-19T03:06:25;18.95;118.99
75799;DHT22;65035;44.726;37.764;2022-12-19T03:09:11;18.96;118.99
75799;DHT22;65035;44.726;37.764;2022-12-19T03:11:35;18.98;118.99
75799;DHT22;65035;44.726;37.764;2022-12-19T03:12:51;18.98;118.99
75799;DHT22;65035;44.726;37.764;2022-12-19T03:14:01;18.99;118.99
75799;DHT22;65035;44.726;37.764;2022-12-19T03:15:08;18.99;118.99
75799;DHT22;65035;44.726;37.764;2022-12-19T03:16:13;18.99;118.99
75799;DHT22;65035;44.726;37.764;2022-12-19T03:17:20;19.00;118.99
75799;DHT22;65035;44.726;37.764;2022-12-19T03:18:25;18.97;118.99
75799;DHT22;65035;44.726;37.764;2022-12-19T03:19:28;18.95;118.99
75799;DHT22;65035;44.726;37.764;2022-12-19T03:20:51;18.96;118.99
75799;DHT22;65035;44.726;37.764;2022-12-19T03:21:56;18.94;118.99
75799;DHT22;65035;44.726;37.764;2022-12-19T03:22:59;18.96;118.99
75799;DHT22;65035;44.726;37.764;2022-12-19T03:24:03;18.95;118.99
75799;DHT22;65035;44.726;37.764;2022-12-19T03:25:06;18.92;118.99
75799;DHT22;65035;44.726;37.764;2022-12-19T03:26:11;18.89;118.99
75799;DHT22;65035;44.726;37.764;2022-12-19T03:27:29;18.93;118.99
75799;DHT22;65035;44.726;37.764;2022-12-19T03:28:41;18.97;118.99
75799;DHT22;65035;44.726;37.764;2022-12-19T03:30:00;18.95;118.99
75799;DHT22;65035;44.726;37.764;2022-12-19T03:31:05;18.98;118.99
75799;DHT22;65035;44.726;37.764;2022-12-19T03:32:12;18.94;118.99
75799;DHT22;65035;44.726;37.764;2022-12-19T03:33:17;19.02;118.99
75799;DHT22;65035;44.726;37.764;2022-12-19T03:34:57;19.02;118.99
75799;DHT22;65035;44.726;37.764;2022-12-19T03:36:04;18.93;118.99
75799;DHT22;65035;44.726;37.764;2022-12-19T03:37:13;18.97;118.99
75799;DHT22;65035;44.726;37.764;2022-12-19T03:38:18;18.93;118.99
75799;DHT22;65035;44.726;37.764;2022-12-19T03:39:23;18.97;118.99
75799;DHT22;65035;44.726;37.764;2022-12-19T03:40:28;18.96;118.99
75799;DHT22;65035;44.726;37.764;2022-12-19T03:41:37;18.94;118.99
75799;DHT22;65035;44.726;37.764;2022-12-19T03:43:02;19.01;118.99
75799;DHT22;65035;44.726;37.764;2022-12-19T03:44:14;19.10;118.99
75799;DHT22;65035;44.726;37.764;2022-12-19T03:47:02;19.10;118.99
75799;DHT22;65035;44.726;37.764;2022-12-19T03:48:18;19.09;118.99
75799;DHT22;65035;44.726;37.764;2022-12-19T03:49:25;19.13;118.99
75799;DHT22;65035;44.726;37.764;2022-12-19T03:50:32;19.15;118.99
75799;DHT22;65035;44.726;37.764;2022-12-19T03:51:47;19.16;118.99
75799;DHT22;65035;44.726;37.764;2022-12-19T03:54:41;19.17;118.99
75799;DHT22;65035;44.726;37.764;2022-12-19T03:55:52;19.18;118.99
75799;DHT22;65035;44.726;37.764;2022-12-19T03:57:14;19.16;118.99
75799;DHT22;65035;44.726;37.764;2022-12-19T03:58:26;19.13;118.99
75799;DHT22;65035;44.726;37.764;2022-12-19T03:59:49;19.17;118.99
75799;DHT22;65035;44.726;37.764;2022-12-19T04:00:53;19.15;118.99
75799;DHT22;65035;44.726;37.764;2022-12-19T04:01:58;19.15;118.99
75799;DHT22;65035;44.726;37.764;2022-12-19T04:03:01;19.12;118.99
75799;DHT22;65035;44.726;37.764;2022-12-19T04:04:06;19.15;118.99
75799;DHT22;65035;44.726;37.764;2022-12-19T04:05:18;19.15;118.99
75799;DHT22;65035;44.726;37.764;2022-12-19T04:06:22;19.12;118.99
75799;DHT22;65035;44.726;37.764;2022-12-19T04:07:26;19.14;118.99
75799;DHT22;65035;44.726;37.764;2022-12-19T04:08:30;19.15;118.99
75799;DHT22;65035;44.726;37.764;2022-12-19T04:09:36;19.16;118.99
75799;DHT22;65035;44.726;37.764;2022-12-19T04:10:50;19.13;118.99
75799;DHT22;65035;44.726;37.764;2022-12-19T04:12:03;19.12;118.99
75799;DHT22;65035;44.726;37.764;2022-12-19T04:13:13;19.17;118.99
75799;DHT22;65035;44.726;37.764;2022-12-19T04:14:32;19.14;118.99
75799;DHT22;65035;44.726;37.764;2022-12-19T04:18:32;19.18;118.99
75799;DHT22;65035;44.726;37.764;2022-12-19T04:20:49;19.25;118.99
75799;DHT22;65035;44.726;37.764;2022-12-19T04:22:20;19.22;118.99
75799;DHT22;65035;44.726;37.764;2022-12-19T04:23:34;19.21;118.99
75799;DHT22;65035;44.726;37.764;2022-12-19T04:24:41;19.25;118.99
75799;DHT22;65035;44.726;37.764;2022-12-19T04:25:50;19.22;118.99
75799;DHT22;65035;44.726;37.764;2022-12-19T04:26:54;19.24;118.99
75799;DHT22;65035;44.726;37.764;2022-12-19T04:28:03;19.22;118.99
75799;DHT22;65035;44.726;37.764;2022-12-19T04:29:09;19.28;118.99
75799;DHT22;65035;44.726;37.764;2022-12-19T04:30:14;19.21;118.99
75799;DHT22;65035;44.726;37.764;2022-12-19T04:31:19;19.24;118.99
75799;DHT22;65035;44.726;37.764;2022-12-19T04:32:24;19.21;118.99
75799;DHT22;65035;44.726;37.764;2022-12-19T04:33:27;19.23;118.99
75799;DHT22;65035;44.726;37.764;2022-12-19T04:34:30;19.24;118.99
75799;DHT22;65035;44.726;37.764;2022-12-19T04:35:34;19.22;118.99
75799;DHT22;65035;44.726;37.764;2022-12-19T04:36:36;19.22;118.99
75799;DHT22;65035;44.726;37.764;2022-12-19T04:37:40;19.24;118.99
75799;DHT22;65035;44.726;37.764;2022-12-19T04:38:43;19.27;118.99
75799;DHT22;65035;44.726;37.764;2022-12-19T04:39:46;19.22;118.99
75799;DHT22;65035;44.726;37.764;2022-12-19T04:40:49;19.25;118.99
75799;DHT22;65035;44.726;37.764;2022-12-19T04:41:54;19.16;118.99
75799;DHT22;65035;44.726;37.764;2022-12-19T04:42:57;19.25;118.99
75799;DHT22;65035;44.726;37.764;2022-12-19T04:43:59;19.21;118.99
75799;DHT22;65035;44.726;37.764;2022-12-19T04:45:03;19.21;118.99
75799;DHT22;65035;44.726;37.764;2022-12-19T04:46:07;19.27;118.99
75799;DHT22;65035;44.726;37.764;2022-12-19T04:47:10;19.18;118.99
75799;DHT22;65035;44.726;37.764;2022-12-19T04:48:13;19.23;118.99
75799;DHT22;65035;44.726;37.764;2022-12-19T04:49:16;19.23;118.99
75799;DHT22;65035;44.726;37.764;2022-12-19T04:50:19;19.21;118.99
75799;DHT22;65035;44.726;37.764;2022-12-19T04:51:22;19.20;118.99
75799;DHT22;65035;44.726;37.764;2022-12-19T04:52:26;19.20;118.99
75799;DHT22;65035;44.726;37.764;2022-12-19T04:53:30;19.21;118.99
75799;DHT22;65035;44.726;37.764;2022-12-19T04:54:33;19.18;118.99
75799;DHT22;65035;44.726;37.764;2022-12-19T04:55:36;19.15;118.99
75799;DHT22;65035;44.726;37.764;2022-12-19T04:56:38;19.14;118.99
75799;DHT22;65035;44.726;37.764;2022-12-19T04:57:41;19.08;118.99
75799;DHT22;65035;44.726;37.764;2022-12-19T04:58:44;19.08;118.99
75799;DHT22;65035;44.726;37.764;2022-12-19T04:59:47;19.08;118.99
75799;DHT22;65035;44.726;37.764;2022-12-19T05:00:51;19.10;118.99
75799;DHT22;65035;44.726;37.764;2022-12-19T05:01:54;19.14;118.99
75799;DHT22;65035;44.726;37.764;2022-12-19T05:02:57;19.12;118.99
75799;DHT22;65035;44.726;37.764;2022-12-19T05:04:00;19.06;118.99
75799;DHT22;65035;44.726;37.764;2022-12-19T05:05:08;19.10;118.99
75799;DHT22;65035;44.726;37.764;2022-12-19T05:06:12;19.12;118.99
75799;DHT22;65035;44.726;37.764;2022-12-19T05:07:18;19.09;118.99
75799;DHT22;65035;44.726;37.764;2022-12-19T05:08:21;19.09;118.99
75799;DHT22;65035;44.726;37.764;2022-12-19T05:09:24;19.08;118.99
75799;DHT22;65035;44.726;37.764;2022-12-19T05:10:29;19.06;118.99
75799;DHT22;65035;44.726;37.764;2022-12-19T05:11:31;18.99;118.99
75799;DHT22;65035;44.726;37.764;2022-12-19T05:12:34;19.06;118.99
75799;DHT22;65035;44.726;37.764;2022-12-19T05:13:37;19.06;118.99
75799;DHT22;65035;44.726;37.764;2022-12-19T05:14:40;19.06;118.99
75799;DHT22;65035;44.726;37.764;2022-12-19T05:15:43;19.06;118.99
75799;DHT22;65035;44.726;37.764;2022-12-19T05:16:46;19.06;118.99
75799;DHT22;65035;44.726;37.764;2022-12-19T05:17:49;19.05;118.99
75799;DHT22;65035;44.726;37.764;2022-12-19T05:18:52;19.06;118.99
75799;DHT22;65035;44.726;37.764;2022-12-19T05:19:55;19.07;118.99
75799;DHT22;65035;44.726;37.764;2022-12-19T05:20:59;19.08;118.99
75799;DHT22;65035;44.726;37.764;2022-12-19T05:22:02;19.10;118.99
75799;DHT22;65035;44.726;37.764;2022-12-19T05:23:05;19.12;118.99
75799;DHT22;65035;44.726;37.764;2022-12-19T05:24:12;19.10;118.99
75799;DHT22;65035;44.726;37.764;2022-12-19T05:25:15;19.14;118.99
75799;DHT22;65035;44.726;37.764;2022-12-19T05:26:18;19.09;118.99
75799;DHT22;65035;44.726;37.764;2022-12-19T05:27:22;19.09;118.99
75799;DHT22;65035;44.726;37.764;2022-12-19T05:28:25;19.09;118.99
75799;DHT22;65035;44.726;37.764;2022-12-19T05:29:27;19.07;118.99
75799;DHT22;65035;44.726;37.764;2022-12-19T05:30:30;19.08;118.99
75799;DHT22;65035;44.726;37.764;2022-12-19T05:31:34;19.08;118.99
75799;DHT22;65035;44.726;37.764;2022-12-19T05:32:36;19.11;118.99
75799;DHT22;65035;44.726;37.764;2022-12-19T05:33:41;19.09;118.99
75799;DHT22;65035;44.726;37.764;2022-12-19T05:34:44;19.08;118.99
75799;DHT22;65035;44.726;37.764;2022-12-19T05:35:47;19.09;118.99
75799;DHT22;65035;44.726;37.764;2022-12-19T05:36:50;19.08;118.99
75799;DHT22;65035;44.726;37.764;2022-12-19T05:37:53;19.13;118.99
75799;DHT22;65035;44.726;37.764;2022-12-19T05:38:56;19.06;118.99
75799;DHT22;65035;44.726;37.764;2022-12-19T05:39:59;19.08;118.99
75799;DHT22;65035;44.726;37.764;2022-12-19T05:41:12;19.05;118.99
75799;DHT22;65035;44.726;37.764;2022-12-19T05:42:15;19.03;118.99
75799;DHT22;65035;44.726;37.764;2022-12-19T05:43:17;19.01;118.99
75799;DHT22;65035;44.726;37.764;2022-12-19T05:44:20;19.07;118.99
75799;DHT22;65035;44.726;37.764;2022-12-19T05:45:23;19.06;118.99
75799;DHT22;65035;44.726;37.764;2022-12-19T05:46:26;19.05;118.99
75799;DHT22;65035;44.726;37.764;2022-12-19T05:47:29;19.06;118.99
75799;DHT22;65035;44.726;37.764;2022-12-19T05:48:33;19.05;118.99
75799;DHT22;65035;44.726;37.764;2022-12-19T05:49:39;19.06;118.99
75799;DHT22;65035;44.726;37.764;2022-12-19T05:50:51;19.05;118.99
75799;DHT22;65035;44.726;37.764;2022-12-19T05:51:54;19.08;118.99
75799;DHT22;65035;44.726;37.764;2022-12-19T05:52:57;19.03;118.99
75799;DHT22;65035;44.726;37.764;2022-12-19T05:54:00;19.06;118.99
75799;DHT22;65035;44.726;37.764;2022-12-19T05:55:04;19.03;118.99
75799;DHT22;65035;44.726;37.764;2022-12-19T05:56:12;19.00;118.99
75799;DHT22;65035;44.726;37.764;2022-12-19T05:57:16;19.02;118.99
75799;DHT22;65035;44.726;37.764;2022-12-19T05:58:19;19.02;118.99
75799;DHT22;65035;44.726;37.764;2022-12-19T05:59:22;18.99;118.99
75799;DHT22;65035;44.726;37.764;2022-12-19T06:00:25;19.02;118.99
75799;DHT22;65035;44.726;37.764;2022-12-19T06:01:28;19.01;118.99
75799;DHT22;65035;44.726;37.764;2022-12-19T06:02:32;18.99;118.99
75799;DHT22;65035;44.726;37.764;2022-12-19T06:03:35;19.05;118.99
75799;DHT22;65035;44.726;37.764;2022-12-19T06:04:38;19.01;118.99
75799;DHT22;65035;44.726;37.764;2022-12-19T06:05:41;19.00;118.99
75799;DHT22;65035;44.726;37.764;2022-12-19T06:06:44;18.95;118.99
75799;DHT22;65035;44.726;37.764;2022-12-19T06:07:46;19.05;118.99
75799;DHT22;65035;44.726;37.764;2022-12-19T06:08:54;18.94;118.99
75799;DHT22;65035;44.726;37.764;2022-12-19T06:09:57;18.98;118.99
75799;DHT22;65035;44.726;37.764;2022-12-19T06:11:01;18.97;118.99
75799;DHT22;65035;44.726;37.764;2022-12-19T06:12:05;18.92;118.99
75799;DHT22;65035;44.726;37.764;2022-12-19T06:13:08;18.95;118.99
75799;DHT22;65035;44.726;37.764;2022-12-19T06:14:11;18.93;118.99
75799;DHT22;65035;44.726;37.764;2022-12-19T06:15:14;18.99;118.99
75799;DHT22;65035;44.726;37.764;2022-12-19T06:16:18;18.99;118.99
75799;DHT22;65035;44.726;37.764;2022-12-19T06:17:22;18.99;118.99
75799;DHT22;65035;44.726;37.764;2022-12-19T06:18:25;18.99;118.99
75799;DHT22;65035;44.726;37.764;2022-12-19T06:19:29;18.98;118.99
75799;DHT22;65035;44.726;37.764;2022-12-19T06:20:32;18.99;118.99
75799;DHT22;65035;44.726;37.764;2022-12-19T06:21:35;18.98;118.99
75799;DHT22;65035;44.726;37.764;2022-12-19T06:22:40;18.98;118.99
75799;DHT22;65035;44.726;37.764;2022-12-19T06:23:44;19.00;118.99
75799;DHT22;65035;44.726;37.764;2022-12-19T06:24:47;18.98;118.99
75799;DHT22;65035;44.726;37.764;2022-12-19T06:25:49;19.00;118.99
75799;DHT22;65035;44.726;37.764;2022-12-19T06:26:53;19.01;118.99
75799;DHT22;65035;44.726;37.764;2022-12-19T06:27:56;18.97;118.99
75799;DHT22;65035;44.726;37.764;2022-12-19T06:28:59;18.98;118.99
75799;DHT22;65035;44.726;37.764;2022-12-19T06:30:02;18.97;118.99
75799;DHT22;65035;44.726;37.764;2022-12-19T06:31:06;19.00;118.99
75799;DHT22;65035;44.726;37.764;2022-12-19T06:32:09;18.96;118.99
75799;DHT22;65035;44.726;37.764;2022-12-19T06:33:12;18.97;118.99
75799;DHT22;65035;44.726;37.764;2022-12-19T06:34:15;18.98;118.99
75799;DHT22;65035;44.726;37.764;2022-12-19T06:35:28;18.98;118.99
75799;DHT22;65035;44.726;37.764;2022-12-19T06:36:31;18.96;118.99
75799;DHT22;65035;44.726;37.764;2022-12-19T06:37:34;18.96;118.99
75799;DHT22;65035;44.726;37.764;2022-12-19T06:38:38;18.95;118.99
75799;DHT22;65035;44.726;37.764;2022-12-19T06:39:41;18.92;118.99
75799;DHT22;65035;44.726;37.764;2022-12-19T06:40:44;18.99;118.99
75799;DHT22;65035;44.726;37.764;2022-12-19T06:42:07;18.91;118.99
75799;DHT22;65035;44.726;37.764;2022-12-19T06:43:25;18.92;118.99
75799;DHT22;65035;44.726;37.764;2022-12-19T06:44:28;18.94;118.99
75799;DHT22;65035;44.726;37.764;2022-12-19T06:45:32;18.94;118.99
75799;DHT22;65035;44.726;37.764;2022-12-19T06:46:36;18.92;118.99
75799;DHT22;65035;44.726;37.764;2022-12-19T06:47:39;18.94;118.99
75799;DHT22;65035;44.726;37.764;2022-12-19T06:48:42;18.89;118.99
75799;DHT22;65035;44.726;37.764;2022-12-19T06:49:45;18.92;118.99
75799;DHT22;65035;44.726;37.764;2022-12-19T06:50:48;18.89;118.99
75799;DHT22;65035;44.726;37.764;2022-12-19T06:51:51;18.91;118.99
75799;DHT22;65035;44.726;37.764;2022-12-19T06:52:54;18.92;118.99
75799;DHT22;65035;44.726;37.764;2022-12-19T06:53:57;18.97;118.99
75799;DHT22;65035;44.726;37.764;2022-12-19T06:55:00;19.01;115.34
75799;DHT22;65035;44.726;37.764;2022-12-19T06:56:03;18.96;118.99
75799;DHT22;65035;44.726;37.764;2022-12-19T06:57:06;18.85;118.99
75799;DHT22;65035;44.726;37.764;2022-12-19T06:58:09;18.82;118.99
75799;DHT22;65035;44.726;37.764;2022-12-19T06:59:14;18.71;118.99
75799;DHT22;65035;44.726;37.764;2022-12-19T07:00:18;18.72;117.67
75799;DHT22;65035;44.726;37.764;2022-12-19T07:02:55;18.47;118.99
75799;DHT22;65035;44.726;37.764;2022-12-19T07:04:00;18.39;118.99
75799;DHT22;65035;44.726;37.764;2022-12-19T07:05:05;18.36;118.99
75799;DHT22;65035;44.726;37.764;2022-12-19T07:06:08;18.25;118.99
75799;DHT22;65035;44.726;37.764;2022-12-19T07:07:11;18.21;118.99
75799;DHT22;65035;44.726;37.764;2022-12-19T07:08:14;18.17;118.99
75799;DHT22;65035;44.726;37.764;2022-12-19T07:09:17;18.10;118.99
75799;DHT22;65035;44.726;37.764;2022-12-19T07:10:20;18.05;118.99
75799;DHT22;65035;44.726;37.764;2022-12-19T07:11:23;17.90;118.99
75799;DHT22;65035;44.726;37.764;2022-12-19T07:12:25;17.89;118.99
75799;DHT22;65035;44.726;37.764;2022-12-19T07:13:28;17.85;118.99
75799;DHT22;65035;44.726;37.764;2022-12-19T07:14:31;17.79;118.99
75799;DHT22;65035;44.726;37.764;2022-12-19T07:15:35;17.74;118.99
75799;DHT22;65035;44.726;37.764;2022-12-19T07:16:39;17.72;118.99
75799;DHT22;65035;44.726;37.764;2022-12-19T07:18:34;17.67;118.99
75799;DHT22;65035;44.726;37.764;2022-12-19T07:19:39;17.59;118.99
75799;DHT22;65035;44.726;37.764;2022-12-19T07:20:42;17.54;118.99
75799;DHT22;65035;44.726;37.764;2022-12-19T07:21:46;17.59;118.99
75799;DHT22;65035;44.726;37.764;2022-12-19T07:22:49;17.52;118.99